sensor_id;sensor_type;location;lat;lon;timestamp;P1;durP1;ratioP1;P2;durP2;ratioP2
5456;SDS011;2751;49.802;9.944;2023-03-01T00:01:02;10.27;;;8.30;;
5456;SDS011;2751;49.802;9.944;2023-03-01T00:03:30;15.37;;;7.97;;
5456;SDS011;2751;49.802;9.944;2023-03-01T00:05:57;11.77;;;7.67;;
5456;SDS011;2751;49.802;9.944;2023-03-01T00:08:26;13.13;;;9.40;;
5456;SDS011;2751;49.802;9.944;2023-03-01T00:11:02;11.83;;;8.60;;
5456;SDS011;2751;49.802;9.944;2023-03-01T00:13:30;14.20;;;8.10;;
5456;SDS011;2751;49.802;9.944;2023-03-01T00:15:57;11.60;;;8.20;;
5456;SDS011;2751;49.802;9.944;2023-03-01T00:18:24;12.10;;;9.23;;
5456;SDS011;2751;49.802;9.944;2023-03-01T00:20:51;13.23;;;8.03;;
5456;SDS011;2751;49.802;9.944;2023-03-01T00:23:18;13.17;;;9.23;;
5456;SDS011;2751;49.802;9.944;2023-03-01T00:25:46;13.23;;;8.03;;
5456;SDS011;2751;49.802;9.944;2023-03-01T00:28:14;13.97;;;8.73;;
5456;SDS011;2751;49.802;9.944;2023-03-01T00:30:41;13.87;;;9.43;;
5456;SDS011;2751;49.802;9.944;2023-03-01T00:33:08;13.13;;;8.67;;
5456;SDS011;2751;49.802;9.944;2023-03-01T00:35:35;11.00;;;7.83;;
5456;SDS011;2751;49.802;9.944;2023-03-01T00:38:02;11.53;;;8.40;;
5456;SDS011;2751;49.802;9.944;2023-03-01T00:40:30;11.90;;;8.03;;
5456;SDS011;2751;49.802;9.944;2023-03-01T00:43:00;14.80;;;7.87;;
5456;SDS011;2751;49.802;9.944;2023-03-01T00:45:27;13.13;;;8.80;;
5456;SDS011;2751;49.802;9.944;2023-03-01T00:47:55;10.47;;;7.53;;
5456;SDS011;2751;49.802;9.944;2023-03-01T00:50:23;13.37;;;8.17;;
5456;SDS011;2751;49.802;9.944;2023-03-01T00:52:52;12.73;;;7.97;;
5456;SDS011;2751;49.802;9.944;2023-03-01T00:55:19;12.43;;;7.77;;
5456;SDS011;2751;49.802;9.944;2023-03-01T00:57:46;13.73;;;8.77;;
5456;SDS011;2751;49.802;9.944;2023-03-01T01:00:15;11.00;;;8.87;;
5456;SDS011;2751;49.802;9.944;2023-03-01T01:02:43;11.33;;;8.17;;
5456;SDS011;2751;49.802;9.944;2023-03-01T01:05:09;15.13;;;8.20;;
5456;SDS011;2751;49.802;9.944;2023-03-01T01:07:37;15.07;;;8.67;;
5456;SDS011;2751;49.802;9.944;2023-03-01T01:10:04;13.17;;;8.90;;
5456;SDS011;2751;49.802;9.944;2023-03-01T01:12:32;12.53;;;8.23;;
5456;SDS011;2751;49.802;9.944;2023-03-01T01:14:59;11.57;;;8.13;;
5456;SDS011;2751;49.802;9.944;2023-03-01T01:17:27;11.57;;;8.30;;
5456;SDS011;2751;49.802;9.944;2023-03-01T01:19:54;11.90;;;9.37;;
5456;SDS011;2751;49.802;9.944;2023-03-01T01:22:21;11.30;;;8.17;;
5456;SDS011;2751;49.802;9.944;2023-03-01T01:24:48;12.70;;;8.77;;
5456;SDS011;2751;49.802;9.944;2023-03-01T01:27:15;11.60;;;8.07;;
5456;SDS011;2751;49.802;9.944;2023-03-01T01:29:42;12.60;;;8.50;;
5456;SDS011;2751;49.802;9.944;2023-03-01T01:32:08;14.80;;;8.60;;
5456;SDS011;2751;49.802;9.944;2023-03-01T01:34:37;12.73;;;8.90;;
5456;SDS011;2751;49.802;9.944;2023-03-01T01:37:04;12.50;;;8.40;;
5456;SDS011;2751;49.802;9.944;2023-03-01T01:39:32;13.20;;;8.47;;
5456;SDS011;2751;49.802;9.944;2023-03-01T01:41:59;13.73;;;8.73;;
5456;SDS011;2751;49.802;9.944;2023-03-01T01:44:27;13.57;;;9.40;;
5456;SDS011;2751;49.802;9.944;2023-03-01T01:46:55;10.90;;;8.00;;
5456;SDS011;2751;49.802;9.944;2023-03-01T01:49:27;10.40;;;8.20;;
5456;SDS011;2751;49.802;9.944;2023-03-01T01:52:02;11.63;;;8.00;;
5456;SDS011;2751;49.802;9.944;2023-03-01T01:54:36;11.57;;;8.43;;
5456;SDS011;2751;49.802;9.944;2023-03-01T01:57:09;11.53;;;8.63;;
5456;SDS011;2751;49.802;9.944;2023-03-01T01:59:39;12.47;;;8.60;;
5456;SDS011;2751;49.802;9.944;2023-03-01T02:02:09;10.90;;;7.77;;
5456;SDS011;2751;49.802;9.944;2023-03-01T02:04:37;14.40;;;8.97;;
5456;SDS011;2751;49.802;9.944;2023-03-01T02:07:08;16.10;;;9.67;;
5456;SDS011;2751;49.802;9.944;2023-03-01T02:09:41;13.37;;;8.50;;
5456;SDS011;2751;49.802;9.944;2023-03-01T02:12:11;11.93;;;8.30;;
5456;SDS011;2751;49.802;9.944;2023-03-01T02:14:40;13.80;;;8.80;;
5456;SDS011;2751;49.802;9.944;2023-03-01T02:17:07;11.60;;;8.37;;
5456;SDS011;2751;49.802;9.944;2023-03-01T02:19:40;12.57;;;8.67;;
5456;SDS011;2751;49.802;9.944;2023-03-01T02:22:20;12.60;;;8.13;;
5456;SDS011;2751;49.802;9.944;2023-03-01T02:24:53;12.10;;;8.20;;
5456;SDS011;2751;49.802;9.944;2023-03-01T02:27:30;13.33;;;7.90;;
5456;SDS011;2751;49.802;9.944;2023-03-01T02:30:04;12.90;;;8.90;;
5456;SDS011;2751;49.802;9.944;2023-03-01T02:32:32;15.83;;;8.73;;
5456;SDS011;2751;49.802;9.944;2023-03-01T02:34:59;11.87;;;8.80;;
5456;SDS011;2751;49.802;9.944;2023-03-01T02:37:26;13.13;;;9.00;;
5456;SDS011;2751;49.802;9.944;2023-03-01T02:39:55;13.03;;;7.80;;
5456;SDS011;2751;49.802;9.944;2023-03-01T02:42:26;12.27;;;8.90;;
5456;SDS011;2751;49.802;9.944;2023-03-01T02:44:57;13.53;;;9.50;;
5456;SDS011;2751;49.802;9.944;2023-03-01T02:47:26;16.27;;;9.07;;
5456;SDS011;2751;49.802;9.944;2023-03-01T02:49:52;13.77;;;8.30;;
5456;SDS011;2751;49.802;9.944;2023-03-01T02:52:32;14.77;;;8.90;;
5456;SDS011;2751;49.802;9.944;2023-03-01T02:55:07;14.27;;;9.63;;
5456;SDS011;2751;49.802;9.944;2023-03-01T02:57:37;13.90;;;9.03;;
5456;SDS011;2751;49.802;9.944;2023-03-01T03:00:06;13.10;;;9.33;;
5456;SDS011;2751;49.802;9.944;2023-03-01T03:02:36;12.30;;;9.00;;
5456;SDS011;2751;49.802;9.944;2023-03-01T03:05:04;18.50;;;10.03;;
5456;SDS011;2751;49.802;9.944;2023-03-01T03:07:33;13.50;;;9.13;;
5456;SDS011;2751;49.802;9.944;2023-03-01T03:10:01;13.30;;;8.83;;
5456;SDS011;2751;49.802;9.944;2023-03-01T03:12:28;13.23;;;9.07;;
5456;SDS011;2751;49.802;9.944;2023-03-01T03:14:55;14.30;;;9.30;;
5456;SDS011;2751;49.802;9.944;2023-03-01T03:17:22;14.80;;;9.40;;
5456;SDS011;2751;49.802;9.944;2023-03-01T03:19:50;16.73;;;9.27;;
5456;SDS011;2751;49.802;9.944;2023-03-01T03:22:17;13.17;;;8.07;;
5456;SDS011;2751;49.802;9.944;2023-03-01T03:24:44;12.30;;;8.70;;
5456;SDS011;2751;49.802;9.944;2023-03-01T03:27:11;10.80;;;8.10;;
5456;SDS011;2751;49.802;9.944;2023-03-01T03:29:38;11.63;;;7.93;;
5456;SDS011;2751;49.802;9.944;2023-03-01T03:32:04;11.57;;;8.97;;
5456;SDS011;2751;49.802;9.944;2023-03-01T03:34:32;13.53;;;9.40;;
5456;SDS011;2751;49.802;9.944;2023-03-01T03:37:00;15.90;;;8.40;;
5456;SDS011;2751;49.802;9.944;2023-03-01T03:39:27;16.33;;;9.00;;
5456;SDS011;2751;49.802;9.944;2023-03-01T03:41:59;13.10;;;8.67;;
5456;SDS011;2751;49.802;9.944;2023-03-01T03:44:27;13.03;;;8.63;;
5456;SDS011;2751;49.802;9.944;2023-03-01T03:46:53;10.87;;;8.13;;
5456;SDS011;2751;49.802;9.944;2023-03-01T03:49:20;11.07;;;8.63;;
5456;SDS011;2751;49.802;9.944;2023-03-01T03:51:47;11.70;;;8.33;;
5456;SDS011;2751;49.802;9.944;2023-03-01T03:54:15;11.50;;;8.70;;
5456;SDS011;2751;49.802;9.944;2023-03-01T03:56:42;13.90;;;9.73;;
5456;SDS011;2751;49.802;9.944;2023-03-01T03:59:09;12.10;;;8.23;;
5456;SDS011;2751;49.802;9.944;2023-03-01T04:01:36;10.33;;;7.70;;
5456;SDS011;2751;49.802;9.944;2023-03-01T04:04:03;13.17;;;7.77;;
5456;SDS011;2751;49.802;9.944;2023-03-01T04:06:32;14.40;;;9.17;;
5456;SDS011;2751;49.802;9.944;2023-03-01T04:08:59;12.97;;;8.03;;
5456;SDS011;2751;49.802;9.944;2023-03-01T04:11:29;16.17;;;9.23;;
5456;SDS011;2751;49.802;9.944;2023-03-01T04:13:56;12.80;;;8.23;;
5456;SDS011;2751;49.802;9.944;2023-03-01T04:16:25;12.40;;;8.47;;
5456;SDS011;2751;49.802;9.944;2023-03-01T04:18:52;11.37;;;8.27;;
5456;SDS011;2751;49.802;9.944;2023-03-01T04:21:19;13.33;;;8.47;;
5456;SDS011;2751;49.802;9.944;2023-03-01T04:23:46;11.90;;;8.80;;
5456;SDS011;2751;49.802;9.944;2023-03-01T04:26:17;13.77;;;9.13;;
5456;SDS011;2751;49.802;9.944;2023-03-01T04:28:47;13.10;;;9.27;;
5456;SDS011;2751;49.802;9.944;2023-03-01T04:31:16;12.03;;;8.80;;
5456;SDS011;2751;49.802;9.944;2023-03-01T04:33:46;11.87;;;9.40;;
5456;SDS011;2751;49.802;9.944;2023-03-01T04:36:15;13.00;;;8.37;;
5456;SDS011;2751;49.802;9.944;2023-03-01T04:38:42;14.43;;;9.60;;
5456;SDS011;2751;49.802;9.944;2023-03-01T04:41:12;14.27;;;8.87;;
5456;SDS011;2751;49.802;9.944;2023-03-01T04:43:40;13.10;;;8.50;;
5456;SDS011;2751;49.802;9.944;2023-03-01T04:46:11;12.57;;;8.50;;
5456;SDS011;2751;49.802;9.944;2023-03-01T04:48:40;11.63;;;8.23;;
5456;SDS011;2751;49.802;9.944;2023-03-01T04:51:08;11.77;;;9.50;;
5456;SDS011;2751;49.802;9.944;2023-03-01T04:53:38;10.43;;;7.10;;
5456;SDS011;2751;49.802;9.944;2023-03-01T04:56:06;9.90;;;6.50;;
5456;SDS011;2751;49.802;9.944;2023-03-01T04:58:33;13.40;;;9.90;;
5456;SDS011;2751;49.802;9.944;2023-03-01T05:01:00;13.83;;;8.30;;
5456;SDS011;2751;49.802;9.944;2023-03-01T05:03:28;12.47;;;8.93;;
5456;SDS011;2751;49.802;9.944;2023-03-01T05:05:58;13.73;;;9.97;;
5456;SDS011;2751;49.802;9.944;2023-03-01T05:08:25;11.93;;;9.37;;
5456;SDS011;2751;49.802;9.944;2023-03-01T05:10:52;15.13;;;9.60;;
5456;SDS011;2751;49.802;9.944;2023-03-01T05:13:20;11.83;;;8.23;;
5456;SDS011;2751;49.802;9.944;2023-03-01T05:15:47;12.57;;;8.40;;
5456;SDS011;2751;49.802;9.944;2023-03-01T05:18:19;12.27;;;9.07;;
5456;SDS011;2751;49.802;9.944;2023-03-01T05:20:47;13.70;;;10.00;;
5456;SDS011;2751;49.802;9.944;2023-03-01T05:23:14;11.40;;;8.10;;
5456;SDS011;2751;49.802;9.944;2023-03-01T05:25:41;12.40;;;9.23;;
5456;SDS011;2751;49.802;9.944;2023-03-01T05:28:09;13.33;;;8.90;;
5456;SDS011;2751;49.802;9.944;2023-03-01T05:30:38;13.90;;;9.57;;
5456;SDS011;2751;49.802;9.944;2023-03-01T05:33:05;15.07;;;9.37;;
5456;SDS011;2751;49.802;9.944;2023-03-01T05:35:38;12.73;;;8.63;;
5456;SDS011;2751;49.802;9.944;2023-03-01T05:38:07;11.57;;;8.70;;
5456;SDS011;2751;49.802;9.944;2023-03-01T05:40:34;11.80;;;8.40;;
5456;SDS011;2751;49.802;9.944;2023-03-01T05:43:01;12.30;;;9.53;;
5456;SDS011;2751;49.802;9.944;2023-03-01T05:45:30;13.00;;;8.87;;
5456;SDS011;2751;49.802;9.944;2023-03-01T05:47:58;12.83;;;8.43;;
5456;SDS011;2751;49.802;9.944;2023-03-01T05:50:26;13.70;;;9.27;;
5456;SDS011;2751;49.802;9.944;2023-03-01T05:52:57;18.00;;;10.97;;
5456;SDS011;2751;49.802;9.944;2023-03-01T05:55:27;14.13;;;11.03;;
5456;SDS011;2751;49.802;9.944;2023-03-01T05:57:54;13.80;;;9.93;;
5456;SDS011;2751;49.802;9.944;2023-03-01T06:00:21;16.23;;;9.47;;
5456;SDS011;2751;49.802;9.944;2023-03-01T06:02:48;11.80;;;8.70;;
5456;SDS011;2751;49.802;9.944;2023-03-01T06:05:16;16.27;;;9.53;;
5456;SDS011;2751;49.802;9.944;2023-03-01T06:07:43;14.50;;;10.07;;
5456;SDS011;2751;49.802;9.944;2023-03-01T06:10:11;12.10;;;8.50;;
5456;SDS011;2751;49.802;9.944;2023-03-01T06:12:40;13.27;;;8.20;;
5456;SDS011;2751;49.802;9.944;2023-03-01T06:15:09;17.20;;;8.80;;
5456;SDS011;2751;49.802;9.944;2023-03-01T06:17:37;13.07;;;8.43;;
5456;SDS011;2751;49.802;9.944;2023-03-01T06:20:06;15.90;;;9.40;;
5456;SDS011;2751;49.802;9.944;2023-03-01T06:22:35;11.20;;;8.40;;
5456;SDS011;2751;49.802;9.944;2023-03-01T06:25:02;14.50;;;10.03;;
5456;SDS011;2751;49.802;9.944;2023-03-01T06:27:30;13.03;;;9.60;;
5456;SDS011;2751;49.802;9.944;2023-03-01T06:29:58;13.17;;;8.63;;
5456;SDS011;2751;49.802;9.944;2023-03-01T06:32:25;14.27;;;11.00;;
5456;SDS011;2751;49.802;9.944;2023-03-01T06:34:52;11.57;;;9.10;;
5456;SDS011;2751;49.802;9.944;2023-03-01T06:37:19;14.03;;;8.87;;
5456;SDS011;2751;49.802;9.944;2023-03-01T06:39:46;19.73;;;9.30;;
5456;SDS011;2751;49.802;9.944;2023-03-01T06:42:12;12.27;;;9.23;;
5456;SDS011;2751;49.802;9.944;2023-03-01T06:44:40;14.83;;;9.37;;
5456;SDS011;2751;49.802;9.944;2023-03-01T06:47:08;15.20;;;9.83;;
5456;SDS011;2751;49.802;9.944;2023-03-01T06:49:35;13.23;;;8.83;;
5456;SDS011;2751;49.802;9.944;2023-03-01T06:52:02;12.10;;;10.30;;
5456;SDS011;2751;49.802;9.944;2023-03-01T06:54:29;12.20;;;8.30;;
5456;SDS011;2751;49.802;9.944;2023-03-01T06:56:55;13.87;;;9.43;;
5456;SDS011;2751;49.802;9.944;2023-03-01T06:59:22;12.30;;;8.87;;
5456;SDS011;2751;49.802;9.944;2023-03-01T07:01:49;12.70;;;8.73;;
5456;SDS011;2751;49.802;9.944;2023-03-01T07:04:17;13.00;;;9.30;;
5456;SDS011;2751;49.802;9.944;2023-03-01T07:06:44;11.20;;;9.73;;
5456;SDS011;2751;49.802;9.944;2023-03-01T07:09:11;12.37;;;8.93;;
5456;SDS011;2751;49.802;9.944;2023-03-01T07:11:38;14.13;;;10.57;;
5456;SDS011;2751;49.802;9.944;2023-03-01T07:14:05;16.63;;;12.13;;
5456;SDS011;2751;49.802;9.944;2023-03-01T07:16:31;12.27;;;10.43;;
5456;SDS011;2751;49.802;9.944;2023-03-01T07:18:58;13.93;;;8.70;;
5456;SDS011;2751;49.802;9.944;2023-03-01T07:21:27;13.20;;;11.03;;
5456;SDS011;2751;49.802;9.944;2023-03-01T07:23:53;11.63;;;8.30;;
5456;SDS011;2751;49.802;9.944;2023-03-01T07:26:20;11.63;;;10.30;;
5456;SDS011;2751;49.802;9.944;2023-03-01T07:28:47;12.43;;;8.40;;
5456;SDS011;2751;49.802;9.944;2023-03-01T07:31:14;14.27;;;9.87;;
5456;SDS011;2751;49.802;9.944;2023-03-01T07:33:41;10.90;;;9.80;;
5456;SDS011;2751;49.802;9.944;2023-03-01T07:36:08;12.10;;;9.23;;
5456;SDS011;2751;49.802;9.944;2023-03-01T07:38:37;12.40;;;8.87;;
5456;SDS011;2751;49.802;9.944;2023-03-01T07:41:03;12.50;;;8.43;;
5456;SDS011;2751;49.802;9.944;2023-03-01T07:43:31;13.20;;;9.87;;
5456;SDS011;2751;49.802;9.944;2023-03-01T07:45:58;15.67;;;9.47;;
5456;SDS011;2751;49.802;9.944;2023-03-01T07:48:26;14.87;;;11.00;;
5456;SDS011;2751;49.802;9.944;2023-03-01T07:50:53;17.20;;;9.90;;
5456;SDS011;2751;49.802;9.944;2023-03-01T07:53:20;11.30;;;8.10;;
5456;SDS011;2751;49.802;9.944;2023-03-01T07:55:48;12.80;;;10.77;;
5456;SDS011;2751;49.802;9.944;2023-03-01T07:58:15;13.23;;;9.57;;
5456;SDS011;2751;49.802;9.944;2023-03-01T08:00:42;13.67;;;11.60;;
5456;SDS011;2751;49.802;9.944;2023-03-01T08:03:08;13.00;;;9.90;;
5456;SDS011;2751;49.802;9.944;2023-03-01T08:05:35;14.10;;;10.50;;
5456;SDS011;2751;49.802;9.944;2023-03-01T08:08:03;14.60;;;10.50;;
5456;SDS011;2751;49.802;9.944;2023-03-01T08:10:31;14.20;;;11.63;;
5456;SDS011;2751;49.802;9.944;2023-03-01T08:12:59;18.00;;;11.67;;
5456;SDS011;2751;49.802;9.944;2023-03-01T08:15:26;18.10;;;11.40;;
5456;SDS011;2751;49.802;9.944;2023-03-01T08:17:52;15.57;;;12.10;;
5456;SDS011;2751;49.802;9.944;2023-03-01T08:20:19;14.97;;;10.20;;
5456;SDS011;2751;49.802;9.944;2023-03-01T08:22:46;13.93;;;10.07;;
5456;SDS011;2751;49.802;9.944;2023-03-01T08:25:13;14.40;;;10.63;;
5456;SDS011;2751;49.802;9.944;2023-03-01T08:27:40;16.00;;;11.10;;
5456;SDS011;2751;49.802;9.944;2023-03-01T08:30:09;15.53;;;10.70;;
5456;SDS011;2751;49.802;9.944;2023-03-01T08:32:37;18.30;;;12.40;;
5456;SDS011;2751;49.802;9.944;2023-03-01T08:35:05;14.37;;;11.30;;
5456;SDS011;2751;49.802;9.944;2023-03-01T08:37:32;18.67;;;12.07;;
5456;SDS011;2751;49.802;9.944;2023-03-01T08:39:59;14.83;;;11.63;;
5456;SDS011;2751;49.802;9.944;2023-03-01T08:42:26;14.60;;;12.10;;
5456;SDS011;2751;49.802;9.944;2023-03-01T08:44:53;14.30;;;12.47;;
5456;SDS011;2751;49.802;9.944;2023-03-01T08:47:21;19.60;;;13.07;;
5456;SDS011;2751;49.802;9.944;2023-03-01T08:49:48;15.10;;;12.33;;
5456;SDS011;2751;49.802;9.944;2023-03-01T08:52:15;12.93;;;11.47;;
5456;SDS011;2751;49.802;9.944;2023-03-01T08:54:42;17.00;;;12.60;;
5456;SDS011;2751;49.802;9.944;2023-03-01T08:57:09;17.10;;;12.70;;
5456;SDS011;2751;49.802;9.944;2023-03-01T08:59:37;20.70;;;12.17;;
5456;SDS011;2751;49.802;9.944;2023-03-01T09:02:04;18.60;;;12.50;;
5456;SDS011;2751;49.802;9.944;2023-03-01T09:04:37;17.60;;;13.37;;
5456;SDS011;2751;49.802;9.944;2023-03-01T09:07:04;16.73;;;12.37;;
5456;SDS011;2751;49.802;9.944;2023-03-01T09:09:31;16.13;;;12.57;;
5456;SDS011;2751;49.802;9.944;2023-03-01T09:11:58;18.60;;;12.77;;
5456;SDS011;2751;49.802;9.944;2023-03-01T09:14:25;15.03;;;12.63;;
5456;SDS011;2751;49.802;9.944;2023-03-01T09:16:52;14.70;;;13.03;;
5456;SDS011;2751;49.802;9.944;2023-03-01T09:19:19;16.40;;;13.07;;
5456;SDS011;2751;49.802;9.944;2023-03-01T09:21:47;18.13;;;12.10;;
5456;SDS011;2751;49.802;9.944;2023-03-01T09:24:19;17.13;;;13.40;;
5456;SDS011;2751;49.802;9.944;2023-03-01T09:26:47;15.53;;;12.60;;
5456;SDS011;2751;49.802;9.944;2023-03-01T09:29:14;17.90;;;13.00;;
5456;SDS011;2751;49.802;9.944;2023-03-01T09:31:42;16.37;;;14.60;;
5456;SDS011;2751;49.802;9.944;2023-03-01T09:34:09;17.10;;;12.60;;
5456;SDS011;2751;49.802;9.944;2023-03-01T09:36:36;17.37;;;12.70;;
5456;SDS011;2751;49.802;9.944;2023-03-01T09:39:05;17.27;;;13.67;;
5456;SDS011;2751;49.802;9.944;2023-03-01T09:44:27;16.60;;;13.03;;
5456;SDS011;2751;49.802;9.944;2023-03-01T09:47:00;18.67;;;14.40;;
5456;SDS011;2751;49.802;9.944;2023-03-01T09:49:28;18.60;;;14.00;;
5456;SDS011;2751;49.802;9.944;2023-03-01T09:51:59;16.40;;;14.30;;
5456;SDS011;2751;49.802;9.944;2023-03-01T09:54:31;16.00;;;13.90;;
5456;SDS011;2751;49.802;9.944;2023-03-01T09:57:04;17.07;;;14.67;;
5456;SDS011;2751;49.802;9.944;2023-03-01T09:59:39;16.00;;;14.30;;
5456;SDS011;2751;49.802;9.944;2023-03-01T10:02:27;18.17;;;13.07;;
5456;SDS011;2751;49.802;9.944;2023-03-01T10:05:05;22.53;;;13.30;;
5456;SDS011;2751;49.802;9.944;2023-03-01T10:07:43;15.60;;;13.93;;
5456;SDS011;2751;49.802;9.944;2023-03-01T10:10:21;15.10;;;13.60;;
5456;SDS011;2751;49.802;9.944;2023-03-01T10:12:58;17.00;;;14.20;;
5456;SDS011;2751;49.802;9.944;2023-03-01T10:15:38;16.70;;;14.97;;
5456;SDS011;2751;49.802;9.944;2023-03-01T10:18:09;16.00;;;14.03;;
5456;SDS011;2751;49.802;9.944;2023-03-01T10:20:42;17.47;;;14.20;;
5456;SDS011;2751;49.802;9.944;2023-03-01T10:23:13;18.00;;;16.10;;
5456;SDS011;2751;49.802;9.944;2023-03-01T10:25:44;18.70;;;16.20;;
5456;SDS011;2751;49.802;9.944;2023-03-01T10:28:20;17.03;;;14.30;;
5456;SDS011;2751;49.802;9.944;2023-03-01T10:30:52;19.23;;;12.90;;
5456;SDS011;2751;49.802;9.944;2023-03-01T10:33:20;20.33;;;15.00;;
5456;SDS011;2751;49.802;9.944;2023-03-01T10:35:49;17.10;;;14.40;;
5456;SDS011;2751;49.802;9.944;2023-03-01T10:38:16;15.67;;;14.07;;
5456;SDS011;2751;49.802;9.944;2023-03-01T10:40:53;15.67;;;13.07;;
5456;SDS011;2751;49.802;9.944;2023-03-01T10:43:23;16.73;;;14.23;;
5456;SDS011;2751;49.802;9.944;2023-03-01T10:45:51;17.63;;;14.17;;
5456;SDS011;2751;49.802;9.944;2023-03-01T10:48:18;16.67;;;12.70;;
5456;SDS011;2751;49.802;9.944;2023-03-01T10:50:50;15.93;;;14.23;;
5456;SDS011;2751;49.802;9.944;2023-03-01T10:53:31;16.70;;;14.77;;
5456;SDS011;2751;49.802;9.944;2023-03-01T10:56:02;17.93;;;14.30;;
5456;SDS011;2751;49.802;9.944;2023-03-01T10:58:32;19.03;;;16.60;;
5456;SDS011;2751;49.802;9.944;2023-03-01T11:01:00;17.40;;;14.33;;
5456;SDS011;2751;49.802;9.944;2023-03-01T11:03:28;17.00;;;15.20;;
5456;SDS011;2751;49.802;9.944;2023-03-01T11:05:58;16.87;;;14.33;;
5456;SDS011;2751;49.802;9.944;2023-03-01T11:08:34;15.33;;;13.03;;
5456;SDS011;2751;49.802;9.944;2023-03-01T11:11:05;15.97;;;12.17;;
5456;SDS011;2751;49.802;9.944;2023-03-01T11:13:56;15.93;;;13.50;;
5456;SDS011;2751;49.802;9.944;2023-03-01T11:16:32;19.10;;;12.00;;
5456;SDS011;2751;49.802;9.944;2023-03-01T11:19:04;15.20;;;13.47;;
5456;SDS011;2751;49.802;9.944;2023-03-01T11:24:36;18.00;;;13.13;;
5456;SDS011;2751;49.802;9.944;2023-03-01T11:27:14;17.30;;;12.53;;
5456;SDS011;2751;49.802;9.944;2023-03-01T11:29:46;16.27;;;12.30;;
5456;SDS011;2751;49.802;9.944;2023-03-01T11:32:18;16.20;;;11.60;;
5456;SDS011;2751;49.802;9.944;2023-03-01T11:34:51;16.27;;;11.20;;
5456;SDS011;2751;49.802;9.944;2023-03-01T11:37:22;17.77;;;12.20;;
5456;SDS011;2751;49.802;9.944;2023-03-01T11:39:59;17.20;;;12.93;;
5456;SDS011;2751;49.802;9.944;2023-03-01T11:42:40;14.83;;;10.30;;
5456;SDS011;2751;49.802;9.944;2023-03-01T11:45:14;13.73;;;10.37;;
5456;SDS011;2751;49.802;9.944;2023-03-01T11:47:48;16.07;;;12.67;;
5456;SDS011;2751;49.802;9.944;2023-03-01T11:50:26;22.53;;;11.33;;
5456;SDS011;2751;49.802;9.944;2023-03-01T11:53:01;15.10;;;12.03;;
5456;SDS011;2751;49.802;9.944;2023-03-01T11:55:58;17.30;;;12.40;;
5456;SDS011;2751;49.802;9.944;2023-03-01T11:58:43;14.70;;;10.83;;
5456;SDS011;2751;49.802;9.944;2023-03-01T12:01:35;15.83;;;11.83;;
5456;SDS011;2751;49.802;9.944;2023-03-01T12:04:21;14.70;;;10.80;;
5456;SDS011;2751;49.802;9.944;2023-03-01T12:07:08;15.00;;;10.90;;
5456;SDS011;2751;49.802;9.944;2023-03-01T12:12:44;13.80;;;10.50;;
5456;SDS011;2751;49.802;9.944;2023-03-01T12:18:51;13.07;;;11.70;;
5456;SDS011;2751;49.802;9.944;2023-03-01T12:21:35;13.23;;;10.73;;
5456;SDS011;2751;49.802;9.944;2023-03-01T12:24:18;15.80;;;13.20;;
5456;SDS011;2751;49.802;9.944;2023-03-01T12:27:10;14.73;;;11.70;;
5456;SDS011;2751;49.802;9.944;2023-03-01T12:29:47;15.07;;;10.53;;
5456;SDS011;2751;49.802;9.944;2023-03-01T12:35:16;11.90;;;8.43;;
5456;SDS011;2751;49.802;9.944;2023-03-01T12:38:15;16.57;;;10.90;;
5456;SDS011;2751;49.802;9.944;2023-03-01T12:40:57;13.23;;;9.30;;
5456;SDS011;2751;49.802;9.944;2023-03-01T12:43:57;12.83;;;11.40;;
5456;SDS011;2751;49.802;9.944;2023-03-01T12:46:33;14.40;;;11.00;;
5456;SDS011;2751;49.802;9.944;2023-03-01T12:49:13;16.57;;;12.07;;
5456;SDS011;2751;49.802;9.944;2023-03-01T12:51:44;14.37;;;10.97;;
5456;SDS011;2751;49.802;9.944;2023-03-01T12:54:19;15.77;;;11.50;;
5456;SDS011;2751;49.802;9.944;2023-03-01T12:56:52;13.20;;;11.77;;
5456;SDS011;2751;49.802;9.944;2023-03-01T12:59:20;16.80;;;10.90;;
5456;SDS011;2751;49.802;9.944;2023-03-01T13:01:52;13.70;;;11.50;;
5456;SDS011;2751;49.802;9.944;2023-03-01T13:04:35;14.53;;;10.67;;
5456;SDS011;2751;49.802;9.944;2023-03-01T13:10:06;13.57;;;11.77;;
5456;SDS011;2751;49.802;9.944;2023-03-01T13:12:52;15.67;;;10.30;;
5456;SDS011;2751;49.802;9.944;2023-03-01T13:15:29;12.43;;;10.03;;
5456;SDS011;2751;49.802;9.944;2023-03-01T13:17:57;13.07;;;9.90;;
5456;SDS011;2751;49.802;9.944;2023-03-01T13:20:27;17.00;;;8.30;;
5456;SDS011;2751;49.802;9.944;2023-03-01T13:23:02;12.63;;;11.30;;
5456;SDS011;2751;49.802;9.944;2023-03-01T13:25:31;14.80;;;10.67;;
5456;SDS011;2751;49.802;9.944;2023-03-01T13:31:03;13.43;;;10.53;;
5456;SDS011;2751;49.802;9.944;2023-03-01T13:33:39;12.57;;;10.30;;
5456;SDS011;2751;49.802;9.944;2023-03-01T13:36:09;17.80;;;11.10;;
5456;SDS011;2751;49.802;9.944;2023-03-01T13:38:45;13.40;;;10.27;;
5456;SDS011;2751;49.802;9.944;2023-03-01T13:41:13;14.87;;;10.53;;
5456;SDS011;2751;49.802;9.944;2023-03-01T13:43:41;15.17;;;10.30;;
5456;SDS011;2751;49.802;9.944;2023-03-01T13:46:10;13.10;;;9.67;;
5456;SDS011;2751;49.802;9.944;2023-03-01T13:48:42;13.53;;;12.03;;
5456;SDS011;2751;49.802;9.944;2023-03-01T13:51:12;13.90;;;10.20;;
5456;SDS011;2751;49.802;9.944;2023-03-01T13:53:41;13.40;;;9.73;;
5456;SDS011;2751;49.802;9.944;2023-03-01T13:56:11;16.10;;;9.97;;
5456;SDS011;2751;49.802;9.944;2023-03-01T13:58:49;13.07;;;7.97;;
5456;SDS011;2751;49.802;9.944;2023-03-01T14:01:23;16.53;;;10.60;;
5456;SDS011;2751;49.802;9.944;2023-03-01T14:03:52;12.83;;;10.70;;
5456;SDS011;2751;49.802;9.944;2023-03-01T14:06:22;12.70;;;8.90;;
5456;SDS011;2751;49.802;9.944;2023-03-01T14:08:50;12.80;;;9.33;;
5456;SDS011;2751;49.802;9.944;2023-03-01T14:11:43;11.50;;;9.67;;
5456;SDS011;2751;49.802;9.944;2023-03-01T14:14:34;13.20;;;9.40;;
5456;SDS011;2751;49.802;9.944;2023-03-01T14:17:14;11.37;;;8.73;;
5456;SDS011;2751;49.802;9.944;2023-03-01T14:20:11;14.63;;;8.80;;
5456;SDS011;2751;49.802;9.944;2023-03-01T14:22:43;11.00;;;8.70;;
5456;SDS011;2751;49.802;9.944;2023-03-01T14:25:22;11.97;;;10.73;;
5456;SDS011;2751;49.802;9.944;2023-03-01T14:27:52;11.37;;;8.80;;
5456;SDS011;2751;49.802;9.944;2023-03-01T14:30:22;14.83;;;9.23;;
5456;SDS011;2751;49.802;9.944;2023-03-01T14:32:52;10.37;;;8.03;;
5456;SDS011;2751;49.802;9.944;2023-03-01T14:35:21;11.13;;;10.00;;
5456;SDS011;2751;49.802;9.944;2023-03-01T14:37:50;10.93;;;8.83;;
5456;SDS011;2751;49.802;9.944;2023-03-01T14:40:22;12.50;;;9.47;;
5456;SDS011;2751;49.802;9.944;2023-03-01T14:42:50;32.20;;;19.53;;
5456;SDS011;2751;49.802;9.944;2023-03-01T14:45:19;11.03;;;9.80;;
5456;SDS011;2751;49.802;9.944;2023-03-01T14:47:46;10.00;;;8.20;;
5456;SDS011;2751;49.802;9.944;2023-03-01T14:50:20;12.03;;;9.30;;
5456;SDS011;2751;49.802;9.944;2023-03-01T14:52:52;11.67;;;10.07;;
5456;SDS011;2751;49.802;9.944;2023-03-01T14:55:23;10.93;;;9.17;;
5456;SDS011;2751;49.802;9.944;2023-03-01T14:57:53;12.33;;;9.20;;
5456;SDS011;2751;49.802;9.944;2023-03-01T15:00:20;11.63;;;8.27;;
5456;SDS011;2751;49.802;9.944;2023-03-01T15:02:50;13.10;;;7.43;;
5456;SDS011;2751;49.802;9.944;2023-03-01T15:05:22;16.27;;;10.00;;
5456;SDS011;2751;49.802;9.944;2023-03-01T15:07:53;10.13;;;8.13;;
5456;SDS011;2751;49.802;9.944;2023-03-01T15:10:22;10.80;;;8.50;;
5456;SDS011;2751;49.802;9.944;2023-03-01T15:12:51;10.77;;;8.50;;
5456;SDS011;2751;49.802;9.944;2023-03-01T15:15:20;11.67;;;8.30;;
5456;SDS011;2751;49.802;9.944;2023-03-01T15:18:03;11.13;;;8.80;;
5456;SDS011;2751;49.802;9.944;2023-03-01T15:20:32;10.20;;;9.20;;
5456;SDS011;2751;49.802;9.944;2023-03-01T15:23:02;13.10;;;7.57;;
5456;SDS011;2751;49.802;9.944;2023-03-01T15:25:30;12.77;;;9.10;;
5456;SDS011;2751;49.802;9.944;2023-03-01T15:27:58;10.70;;;8.73;;
5456;SDS011;2751;49.802;9.944;2023-03-01T15:30:28;9.70;;;6.40;;
5456;SDS011;2751;49.802;9.944;2023-03-01T15:33:19;9.93;;;8.93;;
5456;SDS011;2751;49.802;9.944;2023-03-01T15:35:54;10.50;;;8.20;;